createdAt,value
2022-11-18T00:01:20.154Z,2.17
2022-11-18T00:03:48.590Z,2.53
2022-11-18T00:06:18.457Z,2.30
2022-11-18T00:08:46.581Z,3.10
2022-11-18T00:11:39.302Z,2.80
2022-11-18T00:14:21.208Z,3.90
2022-11-18T00:16:52.151Z,3.33
2022-11-18T00:19:20.867Z,3.90
2022-11-18T00:21:49.031Z,4.13
2022-11-18T00:24:17.198Z,3.53
2022-11-18T00:26:46.664Z,4.07
2022-11-18T00:29:15.455Z,4.90
2022-11-18T00:31:44.198Z,4.20
2022-11-18T00:34:13.884Z,4.20
2022-11-18T00:36:42.798Z,4.77
2022-11-18T00:39:12.425Z,4.27
2022-11-18T00:41:57.836Z,4.53
2022-11-18T00:44:27.415Z,4.20
2022-11-18T00:46:55.630Z,4.30
2022-11-18T00:49:24.397Z,4.87
2022-11-18T00:51:52.505Z,3.37
2022-11-18T00:54:20.727Z,4.37
2022-11-18T00:56:48.839Z,5.03
2022-11-18T00:59:17.247Z,4.97
2022-11-18T01:01:47.019Z,3.73
2022-11-18T01:04:15.395Z,5.50
2022-11-18T01:06:43.473Z,5.70
2022-11-18T01:09:11.600Z,6.37
2022-11-18T01:11:57.226Z,5.00
2022-11-18T01:14:25.930Z,4.50
2022-11-18T01:16:57.367Z,4.80
2022-11-18T01:19:26.209Z,4.10
2022-11-18T01:21:56.422Z,7.07
2022-11-18T01:24:24.537Z,5.40
2022-11-18T01:26:52.642Z,6.60
2022-11-18T01:29:20.732Z,8.47
2022-11-18T01:32:17.371Z,7.10
2022-11-18T01:34:38.451Z,7.10
2022-11-18T01:37:06.512Z,6.57
2022-11-18T01:39:34.552Z,7.37
2022-11-18T01:42:02.650Z,6.03
2022-11-18T01:45:00.466Z,6.70
2022-11-18T01:47:32.714Z,6.47
2022-11-18T01:50:03.462Z,6.30
2022-11-18T01:52:33.888Z,8.20
2022-11-18T01:55:08.238Z,6.80
2022-11-18T01:57:36.373Z,6.63
2022-11-18T02:00:07.371Z,7.97
2022-11-18T02:02:37.404Z,7.73
2022-11-18T02:05:09.581Z,7.70
2022-11-18T02:07:41.875Z,7.97
2022-11-18T02:10:17.946Z,8.80
2022-11-18T02:12:46.148Z,8.90
2022-11-18T02:15:14.237Z,7.60
2022-11-18T02:17:50.028Z,7.87
2022-11-18T02:20:34.992Z,8.93
2022-11-18T02:23:42.083Z,8.20
2022-11-18T02:26:30.849Z,8.83
2022-11-18T02:29:06.996Z,8.43
2022-11-18T02:31:42.130Z,7.10
2022-11-18T02:34:18.640Z,7.60
2022-11-18T02:36:52.711Z,7.37
2022-11-18T02:39:25.836Z,8.33
2022-11-18T02:41:57.265Z,8.47
2022-11-18T02:44:28.328Z,6.93
2022-11-18T02:47:01.301Z,7.87
2022-11-18T02:49:34.484Z,6.97
2022-11-18T02:52:03.567Z,6.43
2022-11-18T02:54:33.920Z,6.00
2022-11-18T02:57:03.924Z,5.50
2022-11-18T02:59:33.432Z,6.50
2022-11-18T03:02:01.630Z,5.53
2022-11-18T03:04:30.983Z,5.73
2022-11-18T03:07:08.027Z,5.60
2022-11-18T03:09:39.350Z,6.67
2022-11-18T03:12:16.100Z,6.30
2022-11-18T03:14:54.211Z,6.70
2022-11-18T03:17:28.772Z,6.77
2022-11-18T03:20:08.656Z,6.30
2022-11-18T03:22:42.979Z,5.83
2022-11-18T03:25:17.391Z,5.77
2022-11-18T03:27:53.603Z,5.80
2022-11-18T03:30:24.879Z,5.03
2022-11-18T03:32:59.925Z,5.90
2022-11-18T03:35:32.072Z,5.27
2022-11-18T03:38:06.052Z,5.53
2022-11-18T03:40:36.462Z,6.13
2022-11-18T03:43:10.050Z,5.87
2022-11-18T03:45:45.368Z,6.17
2022-11-18T03:48:17.751Z,5.00
2022-11-18T03:50:49.545Z,5.90
2022-11-18T03:53:20.174Z,5.93
2022-11-18T03:55:52.259Z,5.07
2022-11-18T03:58:25.378Z,6.47
2022-11-18T04:01:00.286Z,5.57
2022-11-18T04:03:28.846Z,5.33
2022-11-18T04:06:10.781Z,6.33
2022-11-18T04:08:41.241Z,6.27
2022-11-18T04:11:36.018Z,5.80
2022-11-18T04:14:05.599Z,6.30
2022-11-18T04:16:43.193Z,4.80
2022-11-18T04:19:11.496Z,6.07
2022-11-18T04:21:39.649Z,5.37
2022-11-18T04:24:08.339Z,6.13
2022-11-18T04:26:36.501Z,4.90
2022-11-18T04:29:04.668Z,5.37
2022-11-18T04:31:32.760Z,5.90
2022-11-18T04:34:02.248Z,6.10
2022-11-18T04:36:30.301Z,5.90
2022-11-18T04:38:58.474Z,5.50
2022-11-18T04:41:46.568Z,4.60
2022-11-18T04:44:14.639Z,4.87
2022-11-18T04:46:42.982Z,4.97
2022-11-18T04:49:14.343Z,5.80
2022-11-18T04:51:43.804Z,4.93
2022-11-18T04:54:12.471Z,4.17
2022-11-18T04:56:45.671Z,4.30
2022-11-18T04:59:18.264Z,4.40
2022-11-18T05:01:46.584Z,4.80
2022-11-18T05:04:17.888Z,4.37
2022-11-18T05:06:46.026Z,5.23
2022-11-18T05:09:14.940Z,4.20
2022-11-18T05:12:08.741Z,4.97
2022-11-18T05:14:37.056Z,4.50
2022-11-18T05:17:07.068Z,4.00
2022-11-18T05:19:35.362Z,4.50
2022-11-18T05:22:03.481Z,4.70
2022-11-18T05:24:31.585Z,4.40
2022-11-18T05:27:01.310Z,4.27
2022-11-18T05:29:29.452Z,4.00
2022-11-18T05:31:57.536Z,4.73
2022-11-18T05:34:25.985Z,4.50
2022-11-18T05:36:54.268Z,3.83
2022-11-18T05:39:22.365Z,4.33
2022-11-18T05:42:07.910Z,3.80
2022-11-18T05:44:37.328Z,3.87
2022-11-18T05:47:05.411Z,5.20
2022-11-18T05:49:33.528Z,3.83
2022-11-18T05:52:01.772Z,3.80
2022-11-18T05:54:30.042Z,3.93
2022-11-18T05:56:58.213Z,3.83
2022-11-18T05:59:26.289Z,3.40
2022-11-18T06:02:00.541Z,3.57
2022-11-18T06:04:33.169Z,3.20
2022-11-18T06:07:06.318Z,3.10
2022-11-18T06:09:38.808Z,3.23
2022-11-18T06:12:08.236Z,2.90
2022-11-18T06:14:41.628Z,2.30
2022-11-18T06:17:16.334Z,2.50
2022-11-18T06:19:44.744Z,2.13
2022-11-18T06:22:13.168Z,2.73
2022-11-18T06:24:42.889Z,2.27
2022-11-18T06:27:11.493Z,2.00
2022-11-18T06:29:39.626Z,2.60
2022-11-18T06:32:07.869Z,2.47
2022-11-18T06:34:41.550Z,2.43
2022-11-18T06:37:17.675Z,2.47
2022-11-18T06:39:45.845Z,2.47
2022-11-18T06:42:34.279Z,2.27
2022-11-18T06:45:02.247Z,2.00
2022-11-18T06:47:30.543Z,1.80
2022-11-18T06:50:00.017Z,2.37
2022-11-18T06:52:28.622Z,2.40
2022-11-18T06:54:56.820Z,2.43
2022-11-18T06:57:24.922Z,2.37
2022-11-18T06:59:56.498Z,2.50
2022-11-18T07:02:27.332Z,2.43
2022-11-18T07:04:55.392Z,2.40
2022-11-18T07:07:24.923Z,2.20
2022-11-18T07:09:53.119Z,1.93
2022-11-18T07:12:21.269Z,2.50
2022-11-18T07:14:49.400Z,2.13
2022-11-18T07:17:17.501Z,2.67
2022-11-18T07:19:45.638Z,3.13
2022-11-18T07:22:13.749Z,2.40
2022-11-18T07:24:43.360Z,1.83
2022-11-18T07:27:11.459Z,2.00
2022-11-18T07:29:39.529Z,2.80
2022-11-18T07:32:07.897Z,1.77
2022-11-18T07:34:35.979Z,1.37
2022-11-18T07:37:04.082Z,1.73
2022-11-18T07:39:32.186Z,1.67
2022-11-18T07:42:01.659Z,2.10
2022-11-18T07:44:29.739Z,1.80
2022-11-18T07:46:57.814Z,1.87
2022-11-18T07:49:25.922Z,2.93
2022-11-18T07:51:54.528Z,1.80
2022-11-18T07:54:22.607Z,2.23
2022-11-18T07:56:50.685Z,2.77
2022-11-18T07:59:20.354Z,3.47
2022-11-18T08:01:48.943Z,3.47
2022-11-18T08:04:17.983Z,3.00
2022-11-18T08:06:46.117Z,2.87
2022-11-18T08:09:14.265Z,3.53
2022-11-18T08:11:42.341Z,2.80
2022-11-18T08:14:10.450Z,2.00
2022-11-18T08:16:39.912Z,1.97
2022-11-18T08:19:08.015Z,1.53
2022-11-18T08:21:36.117Z,1.63
2022-11-18T08:24:04.258Z,1.87
2022-11-18T08:26:32.304Z,2.27
2022-11-18T08:29:00.444Z,2.03
2022-11-18T08:31:30.493Z,2.90
2022-11-18T08:34:01.222Z,2.40
2022-11-18T08:36:31.129Z,2.80
2022-11-18T08:39:00.610Z,3.37
2022-11-18T08:41:32.254Z,2.90
2022-11-18T08:44:01.157Z,3.23
2022-11-18T08:46:29.280Z,3.10
2022-11-18T08:48:59.074Z,2.97
2022-11-18T08:51:27.776Z,3.10
2022-11-18T08:53:56.027Z,3.10
2022-11-18T08:56:25.396Z,2.60
2022-11-18T08:58:54.220Z,2.97
2022-11-18T09:01:22.922Z,2.77
2022-11-18T09:03:51.839Z,2.97
2022-11-18T09:06:22.654Z,2.60
2022-11-18T09:08:50.806Z,3.20
2022-11-18T09:11:22.136Z,2.70
2022-11-18T09:14:38.904Z,3.03
2022-11-18T09:16:42.131Z,3.40
2022-11-18T09:19:32.137Z,3.40
2022-11-18T09:21:59.735Z,4.03
2022-11-18T09:24:27.856Z,4.97
2022-11-18T09:26:55.945Z,4.83
2022-11-18T09:29:26.158Z,4.33
2022-11-18T09:31:54.768Z,4.10
2022-11-18T09:34:23.024Z,3.80
2022-11-18T09:36:55.771Z,4.30
2022-11-18T09:39:25.825Z,4.20
2022-11-18T09:42:08.151Z,6.13
2022-11-18T09:44:52.184Z,4.17
2022-11-18T09:47:27.342Z,3.83
2022-11-18T09:49:57.141Z,3.90
2022-11-18T09:52:34.316Z,4.60
2022-11-18T09:55:13.512Z,4.87
2022-11-18T09:57:46.620Z,3.73
2022-11-18T10:00:17.277Z,4.67
2022-11-18T10:02:56.454Z,3.47
2022-11-18T10:05:27.316Z,4.20
2022-11-18T10:08:15.372Z,4.37
2022-11-18T10:10:52.373Z,5.40
2022-11-18T10:13:32.251Z,4.17
2022-11-18T10:16:09.387Z,4.70
2022-11-18T10:18:59.845Z,5.07
2022-11-18T10:21:41.380Z,4.17
2022-11-18T10:24:18.259Z,4.77
2022-11-18T10:26:48.291Z,5.50
2022-11-18T10:29:16.420Z,4.23
2022-11-18T10:32:03.750Z,3.67
2022-11-18T10:34:33.200Z,3.53
2022-11-18T10:37:04.355Z,5.40
2022-11-18T10:39:32.637Z,3.43
2022-11-18T10:42:04.790Z,4.00
2022-11-18T10:44:35.626Z,3.50
2022-11-18T10:47:26.174Z,2.77
2022-11-18T10:49:55.673Z,2.17
2022-11-18T10:52:24.031Z,1.80
2022-11-18T10:55:24.442Z,1.43
2022-11-18T10:57:57.497Z,1.47
2022-11-18T11:00:46.811Z,1.00
2022-11-18T11:03:37.126Z,1.00
2022-11-18T11:06:31.532Z,1.43
2022-11-18T11:09:06.563Z,1.10
2022-11-18T11:11:36.429Z,1.47
2022-11-18T11:14:23.339Z,1.20
2022-11-18T11:16:59.887Z,1.40
2022-11-18T11:19:36.478Z,1.60
2022-11-18T11:22:06.095Z,1.10
2022-11-18T11:24:34.202Z,0.90
2022-11-18T11:30:11.722Z,0.93
2022-11-18T11:33:04.340Z,1.20
2022-11-18T11:35:42.193Z,1.30
2022-11-18T11:38:18.997Z,1.10
2022-11-18T11:40:59.751Z,1.50
2022-11-18T11:43:40.718Z,1.00
2022-11-18T11:46:20.725Z,1.47
2022-11-18T11:48:58.662Z,1.37
2022-11-18T11:51:36.048Z,0.90
2022-11-18T11:54:40.622Z,1.03
2022-11-18T11:57:19.553Z,1.33
2022-11-18T12:00:00.096Z,1.10
2022-11-18T12:02:45.447Z,0.93
2022-11-18T12:05:23.282Z,1.10
2022-11-18T12:07:55.069Z,0.97
2022-11-18T12:10:37.040Z,3.03
2022-11-18T12:13:21.924Z,1.10
2022-11-18T12:16:02.817Z,1.03
2022-11-18T12:18:39.269Z,0.97
2022-11-18T12:21:07.402Z,0.90
2022-11-18T12:23:35.887Z,1.00
2022-11-18T12:26:06.686Z,1.17
2022-11-18T12:28:38.185Z,0.90
2022-11-18T12:31:35.316Z,1.00
2022-11-18T12:34:07.867Z,0.63
2022-11-18T12:36:38.543Z,0.97
2022-11-18T12:39:49.203Z,0.90
2022-11-18T12:42:57.089Z,1.00
2022-11-18T12:45:59.688Z,0.70
2022-11-18T12:48:39.648Z,0.90
2022-11-18T12:51:44.947Z,0.90
2022-11-18T12:54:36.334Z,0.70
2022-11-18T12:57:12.069Z,1.17
2022-11-18T12:59:40.135Z,1.07
2022-11-18T13:02:21.577Z,0.90
2022-11-18T13:05:07.429Z,0.77
2022-11-18T13:07:57.930Z,0.80
2022-11-18T13:10:31.495Z,0.90
2022-11-18T13:13:00.657Z,1.20
2022-11-18T13:15:46.342Z,0.83
2022-11-18T13:18:17.370Z,1.00
2022-11-18T13:20:57.513Z,1.10
2022-11-18T13:23:47.161Z,1.00
2022-11-18T13:26:29.625Z,1.10
2022-11-18T13:29:12.133Z,1.00
2022-11-18T13:31:45.470Z,1.73
2022-11-18T13:34:18.983Z,1.17
2022-11-18T13:36:49.061Z,1.13
2022-11-18T13:39:22.502Z,1.07
2022-11-18T13:42:01.898Z,0.90
2022-11-18T13:44:33.354Z,0.73
2022-11-18T13:47:07.741Z,0.70
2022-11-18T13:49:50.576Z,0.93
2022-11-18T13:52:24.773Z,0.70
2022-11-18T13:54:55.317Z,0.80
2022-11-18T13:57:28.174Z,0.83
2022-11-18T13:59:56.454Z,0.80
2022-11-18T14:02:24.765Z,0.90
2022-11-18T14:04:56.162Z,1.10
2022-11-18T14:07:32.980Z,1.10
2022-11-18T14:10:03.141Z,0.80
2022-11-18T14:12:34.556Z,0.67
2022-11-18T14:15:20.318Z,0.80
2022-11-18T14:17:56.218Z,0.60
2022-11-18T14:20:25.828Z,1.03
2022-11-18T14:22:57.465Z,0.90
2022-11-18T14:25:30.358Z,0.90
2022-11-18T14:28:12.477Z,1.00
2022-11-18T14:30:41.821Z,0.97
2022-11-18T14:33:12.140Z,1.10
2022-11-18T14:35:40.723Z,1.13
2022-11-18T14:38:36.720Z,0.80
2022-11-18T14:41:06.000Z,0.80
2022-11-18T14:43:35.465Z,1.00
2022-11-18T14:46:06.179Z,0.90
2022-11-18T14:48:34.359Z,1.53
2022-11-18T14:51:02.482Z,1.30
2022-11-18T14:53:30.503Z,1.40
2022-11-18T14:56:00.166Z,0.90
2022-11-18T14:58:28.232Z,1.10
2022-11-18T15:00:57.708Z,0.90
2022-11-18T15:03:25.904Z,1.00
2022-11-18T15:05:54.251Z,1.10
2022-11-18T15:08:22.301Z,1.33
2022-11-18T15:10:50.410Z,1.10
2022-11-18T15:13:18.483Z,1.07
2022-11-18T15:15:46.631Z,1.00
2022-11-18T15:18:16.035Z,1.30
2022-11-18T15:20:44.098Z,0.80
2022-11-18T15:23:12.178Z,0.90
2022-11-18T15:25:40.686Z,1.33
2022-11-18T15:28:10.839Z,1.03
2022-11-18T15:30:39.179Z,1.10
2022-11-18T15:33:07.295Z,0.97
2022-11-18T15:35:36.737Z,1.17
2022-11-18T15:38:04.826Z,0.90
2022-11-18T15:40:32.949Z,1.27
2022-11-18T15:43:01.051Z,1.07
2022-11-18T15:45:29.143Z,1.50
2022-11-18T15:47:57.564Z,1.20
2022-11-18T15:50:25.659Z,1.20
2022-11-18T15:52:55.772Z,1.10
2022-11-18T15:55:23.903Z,1.27
2022-11-18T15:57:52.319Z,1.20
2022-11-18T16:00:20.622Z,1.30
2022-11-18T16:02:48.742Z,1.40
2022-11-18T16:05:16.970Z,1.30
2022-11-18T16:07:45.088Z,1.40
2022-11-18T16:10:32.088Z,1.70
2022-11-18T16:13:00.180Z,1.70
2022-11-18T16:15:48.087Z,1.40
2022-11-18T16:18:19.585Z,1.10
2022-11-18T16:20:47.683Z,1.20
2022-11-18T16:23:15.846Z,1.20
2022-11-18T16:25:48.099Z,1.13
2022-11-18T16:28:16.187Z,1.63
2022-11-18T16:31:06.785Z,1.50
2022-11-18T16:33:35.030Z,1.10
2022-11-18T16:36:03.396Z,1.20
2022-11-18T16:38:31.508Z,1.07
2022-11-18T16:41:01.516Z,1.37
2022-11-18T16:43:29.588Z,1.50
2022-11-18T16:45:57.652Z,1.30
2022-11-18T16:48:25.776Z,1.60
2022-11-18T16:51:08.568Z,1.53
2022-11-18T16:53:36.611Z,1.53
2022-11-18T16:56:06.273Z,1.60
2022-11-18T16:58:34.340Z,2.17
2022-11-18T17:01:19.791Z,2.37
2022-11-18T17:03:51.904Z,2.60
2022-11-18T17:06:20.001Z,3.37
2022-11-18T17:08:48.937Z,2.70
2022-11-18T17:11:18.960Z,2.50
2022-11-18T17:13:47.064Z,2.13
2022-11-18T17:16:17.587Z,2.37
2022-11-18T17:18:46.292Z,2.03
2022-11-18T17:21:17.358Z,2.47
2022-11-18T17:23:46.346Z,2.40
2022-11-18T17:26:15.959Z,2.00
2022-11-18T17:28:45.556Z,2.20
2022-11-18T17:31:15.180Z,2.73
2022-11-18T17:33:43.712Z,2.50
2022-11-18T17:36:13.869Z,2.93
2022-11-18T17:38:43.540Z,4.20
2022-11-18T17:41:33.761Z,3.50
2022-11-18T17:44:05.506Z,3.13
2022-11-18T17:46:38.064Z,3.47
2022-11-18T17:49:08.396Z,3.30
2022-11-18T17:51:36.448Z,4.60
2022-11-18T17:54:04.721Z,4.80
2022-11-18T17:56:33.013Z,6.00
2022-11-18T17:59:01.268Z,5.20
2022-11-18T18:01:30.861Z,4.60
2022-11-18T18:03:59.223Z,4.00
2022-11-18T18:06:27.845Z,3.30
2022-11-18T18:08:57.238Z,2.77
2022-11-18T18:11:26.451Z,3.80
2022-11-18T18:14:09.037Z,3.70
2022-11-18T18:16:39.796Z,2.27
2022-11-18T18:19:08.734Z,3.60
2022-11-18T18:21:36.879Z,5.40
2022-11-18T18:24:06.263Z,6.40
2022-11-18T18:26:34.843Z,5.83
2022-11-18T18:29:03.497Z,5.57
2022-11-18T18:31:35.334Z,5.43
2022-11-18T18:34:05.186Z,6.20
2022-11-18T18:36:34.575Z,5.83
2022-11-18T18:39:03.161Z,4.63
2022-11-18T18:41:32.317Z,5.10
2022-11-18T18:44:00.696Z,4.70
2022-11-18T18:46:28.727Z,4.00
2022-11-18T18:48:58.754Z,5.33
2022-11-18T18:51:29.470Z,4.57
2022-11-18T18:53:58.364Z,4.53
2022-11-18T18:56:27.383Z,5.13
2022-11-18T18:58:55.784Z,4.93
2022-11-18T19:01:23.958Z,5.13
2022-11-18T19:03:55.438Z,4.67
2022-11-18T19:06:53.277Z,5.40
2022-11-18T19:09:16.346Z,6.07
2022-11-18T19:12:02.252Z,5.40
2022-11-18T19:14:30.479Z,4.60
2022-11-18T19:16:58.542Z,4.53
2022-11-18T19:19:46.225Z,3.23
2022-11-18T19:22:15.571Z,3.73
2022-11-18T19:24:52.965Z,4.03
2022-11-18T19:27:21.614Z,4.37
2022-11-18T19:29:49.785Z,5.00
2022-11-18T19:32:18.070Z,5.87
2022-11-18T19:34:46.140Z,4.80
2022-11-18T19:37:14.204Z,4.50
2022-11-18T19:39:42.315Z,4.27
2022-11-18T19:42:11.717Z,4.13
2022-11-18T19:44:39.860Z,5.43
2022-11-18T19:47:07.947Z,6.43
2022-11-18T19:49:36.041Z,6.87
2022-11-18T19:52:04.143Z,5.47
2022-11-18T19:54:32.190Z,4.83
2022-11-18T19:57:00.900Z,5.23
2022-11-18T19:59:30.450Z,5.30
2022-11-18T20:01:58.542Z,4.00
2022-11-18T20:04:26.930Z,5.47
2022-11-18T20:06:55.115Z,4.90
2022-11-18T20:09:23.508Z,5.60
2022-11-18T20:11:51.730Z,7.00
2022-11-18T20:14:19.824Z,7.60
2022-11-18T20:16:51.437Z,6.57
2022-11-18T20:19:19.693Z,6.50
2022-11-18T20:21:49.332Z,4.30
2022-11-18T20:24:19.236Z,4.37
2022-11-18T20:26:48.604Z,6.00
2022-11-18T20:29:17.007Z,6.70
2022-11-18T20:31:45.601Z,5.90
2022-11-18T20:34:15.428Z,5.17
2022-11-18T20:36:44.403Z,4.47
2022-11-18T20:39:14.904Z,4.70
2022-11-18T20:42:03.719Z,4.40
2022-11-18T20:44:31.788Z,3.63
2022-11-18T20:47:00.129Z,3.40
2022-11-18T20:49:29.517Z,3.27
2022-11-18T20:51:57.574Z,2.83
2022-11-18T20:54:25.678Z,2.43
2022-11-18T20:56:53.727Z,3.00
2022-11-18T20:59:21.831Z,2.30
2022-11-18T21:01:49.926Z,2.90
2022-11-18T21:04:17.976Z,3.37
2022-11-18T21:06:47.743Z,2.93
2022-11-18T21:09:17.002Z,4.20
2022-11-18T21:11:45.327Z,4.63
2022-11-18T21:14:23.887Z,5.27
2022-11-18T21:16:55.040Z,5.73
2022-11-18T21:19:24.052Z,5.00
2022-11-18T21:21:53.472Z,3.97
2022-11-18T21:24:23.287Z,5.10
2022-11-18T21:26:54.355Z,4.47
2022-11-18T21:29:23.007Z,3.83
2022-11-18T21:31:51.360Z,4.37
2022-11-18T21:34:19.773Z,3.40
2022-11-18T21:36:54.068Z,4.60
2022-11-18T21:39:24.625Z,5.47
2022-11-18T21:41:56.379Z,5.40
2022-11-18T21:44:25.509Z,5.40
2022-11-18T21:46:53.558Z,4.17
2022-11-18T21:49:22.364Z,3.47
2022-11-18T21:51:50.887Z,3.30
2022-11-18T21:54:19.048Z,3.17
2022-11-18T21:56:48.527Z,2.43
2022-11-18T21:59:17.026Z,2.73
2022-11-18T22:01:45.400Z,2.33
2022-11-18T22:04:33.652Z,3.03
2022-11-18T22:07:01.825Z,2.70
2022-11-18T22:09:34.835Z,2.77
2022-11-18T22:12:07.623Z,2.07
2022-11-18T22:14:36.039Z,1.93
2022-11-18T22:17:04.242Z,1.90
2022-11-18T22:19:32.321Z,2.20
2022-11-18T22:22:00.511Z,2.13
2022-11-18T22:24:28.728Z,2.27
2022-11-18T22:26:56.864Z,2.40
2022-11-18T22:29:26.320Z,2.70
2022-11-18T22:31:54.507Z,3.20
2022-11-18T22:34:22.598Z,3.33
2022-11-18T22:36:50.890Z,3.50
2022-11-18T22:39:19.380Z,3.70
2022-11-18T22:42:05.531Z,3.60
2022-11-18T22:44:34.953Z,3.93
2022-11-18T22:47:03.012Z,3.70
2022-11-18T22:49:31.102Z,4.70
2022-11-18T22:51:59.177Z,3.27
2022-11-18T22:54:42.444Z,3.37
2022-11-18T22:57:10.613Z,3.77
2022-11-18T22:59:40.118Z,2.63
2022-11-18T23:02:08.281Z,2.20
2022-11-18T23:04:36.369Z,1.80
2022-11-18T23:07:05.247Z,1.93
2022-11-18T23:09:33.354Z,1.73
2022-11-18T23:12:19.224Z,1.70
2022-11-18T23:14:48.628Z,1.83
2022-11-18T23:17:16.850Z,1.43
2022-11-18T23:19:46.095Z,1.47
2022-11-18T23:22:14.515Z,1.70
2022-11-18T23:24:42.605Z,1.63
2022-11-18T23:27:10.771Z,1.90
2022-11-18T23:29:39.030Z,1.90
2022-11-18T23:32:08.515Z,1.60
2022-11-18T23:34:36.589Z,1.53
2022-11-18T23:37:04.706Z,1.30
2022-11-18T23:39:32.793Z,1.00
2022-11-18T23:42:00.909Z,1.30
2022-11-18T23:44:47.429Z,1.03
2022-11-18T23:47:17.165Z,1.20
2022-11-18T23:49:45.221Z,1.20
2022-11-18T23:52:14.817Z,1.17
2022-11-18T23:54:42.900Z,1.40
2022-11-18T23:57:11.007Z,1.20
2022-11-18T23:59:39.067Z,1.90
